createdAt,value
2022-11-19T00:01:33.210Z,6.47
2022-11-19T00:04:00.816Z,8.05
2022-11-19T00:06:29.760Z,9.00
2022-11-19T00:08:57.437Z,8.23
2022-11-19T00:11:41.050Z,9.82
2022-11-19T00:14:08.871Z,8.85
2022-11-19T00:16:36.887Z,7.50
2022-11-19T00:19:05.395Z,9.03
2022-11-19T00:21:34.635Z,8.05
2022-11-19T00:24:02.310Z,7.80
2022-11-19T00:26:30.006Z,7.90
2022-11-19T00:28:57.970Z,8.52
2022-11-19T00:31:25.815Z,8.57
2022-11-19T00:33:54.666Z,6.57
2022-11-19T00:36:23.008Z,8.33
2022-11-19T00:38:52.016Z,7.07
2022-11-19T00:41:20.540Z,7.82
2022-11-19T00:43:48.516Z,6.10
2022-11-19T00:46:17.916Z,8.07
2022-11-19T00:48:45.895Z,8.15
2022-11-19T00:51:14.098Z,6.97
2022-11-19T00:53:41.736Z,6.68
2022-11-19T00:56:12.815Z,7.85
2022-11-19T00:58:40.829Z,7.30
2022-11-19T01:01:09.847Z,8.63
2022-11-19T01:03:38.593Z,8.07
2022-11-19T01:06:07.554Z,8.73
2022-11-19T01:08:35.429Z,7.80
2022-11-19T01:11:07.116Z,9.45
2022-11-19T01:13:37.313Z,8.35
2022-11-19T01:16:08.443Z,9.25
2022-11-19T01:18:37.034Z,8.88
2022-11-19T01:21:05.780Z,9.30
2022-11-19T01:23:33.947Z,9.13
2022-11-19T01:26:03.451Z,9.60
2022-11-19T01:28:31.428Z,9.05
2022-11-19T01:31:00.933Z,7.90
2022-11-19T01:33:29.125Z,10.10
2022-11-19T01:35:58.490Z,8.80
2022-11-19T01:38:27.039Z,10.45
2022-11-19T01:40:54.787Z,10.63
2022-11-19T01:43:41.159Z,9.43
2022-11-19T01:46:11.407Z,11.07
2022-11-19T01:48:41.912Z,8.82
2022-11-19T01:51:12.956Z,8.73
2022-11-19T01:53:41.816Z,9.48
2022-11-19T01:56:10.781Z,9.77
2022-11-19T01:58:42.122Z,9.47
2022-11-19T02:01:11.925Z,8.25
2022-11-19T02:03:40.931Z,11.82
2022-11-19T02:06:09.332Z,11.32
2022-11-19T02:08:41.399Z,8.60
2022-11-19T02:11:27.423Z,10.02
2022-11-19T02:14:04.148Z,7.75
2022-11-19T02:16:43.699Z,7.45
2022-11-19T02:19:25.841Z,9.10
2022-11-19T02:22:02.545Z,9.80
2022-11-19T02:24:49.594Z,9.23
2022-11-19T02:27:59.024Z,7.77
2022-11-19T02:30:34.322Z,10.57
2022-11-19T02:33:07.633Z,6.68
2022-11-19T02:35:45.299Z,10.07
2022-11-19T02:38:24.012Z,9.15
2022-11-19T02:40:57.743Z,7.97
2022-11-19T02:43:32.675Z,9.60
2022-11-19T02:46:07.512Z,8.98
2022-11-19T02:48:39.223Z,7.30
2022-11-19T02:51:09.045Z,8.00
2022-11-19T02:53:37.069Z,10.45
2022-11-19T02:56:13.569Z,9.77
2022-11-19T02:59:02.439Z,8.95
2022-11-19T03:02:06.186Z,7.90
2022-11-19T03:04:34.112Z,10.05
2022-11-19T03:07:06.364Z,7.78
2022-11-19T03:09:37.530Z,7.78
2022-11-19T03:12:12.313Z,9.23
2022-11-19T03:15:07.125Z,9.27
2022-11-19T03:17:49.323Z,7.50
2022-11-19T03:20:23.541Z,8.17
2022-11-19T03:22:55.452Z,10.38
2022-11-19T03:25:29.836Z,7.95
2022-11-19T03:28:03.084Z,6.35
2022-11-19T03:30:31.688Z,6.28
2022-11-19T03:33:04.760Z,9.27
2022-11-19T03:35:37.742Z,7.45
2022-11-19T03:38:09.401Z,6.72
2022-11-19T03:40:38.092Z,8.27
2022-11-19T03:43:09.263Z,8.55
2022-11-19T03:45:41.348Z,8.10
2022-11-19T03:48:12.396Z,7.03
2022-11-19T03:50:48.632Z,7.22
2022-11-19T03:53:16.700Z,7.57
2022-11-19T03:55:47.981Z,6.53
2022-11-19T03:58:15.975Z,8.90
2022-11-19T04:00:44.693Z,8.32
2022-11-19T04:03:13.728Z,7.90
2022-11-19T04:05:41.337Z,5.15
2022-11-19T04:08:08.943Z,8.60
2022-11-19T04:10:37.017Z,6.20
2022-11-19T04:13:04.912Z,7.05
2022-11-19T04:15:32.539Z,8.10
2022-11-19T04:18:01.247Z,7.57
2022-11-19T04:20:30.388Z,9.18
2022-11-19T04:22:58.035Z,7.18
2022-11-19T04:25:25.683Z,6.80
2022-11-19T04:27:53.382Z,7.05
2022-11-19T04:30:21.456Z,7.43
2022-11-19T04:32:49.216Z,8.75
2022-11-19T04:35:18.159Z,8.63
2022-11-19T04:37:47.230Z,8.38
2022-11-19T04:40:14.900Z,7.05
2022-11-19T04:42:42.508Z,9.63
2022-11-19T04:45:11.576Z,7.68
2022-11-19T04:47:39.397Z,7.78
2022-11-19T04:50:08.153Z,6.78
2022-11-19T04:52:40.612Z,8.25
2022-11-19T04:55:11.511Z,7.15
2022-11-19T04:57:39.611Z,7.05
2022-11-19T05:00:09.097Z,7.30
2022-11-19T05:02:36.961Z,5.78
2022-11-19T05:05:05.031Z,10.23
2022-11-19T05:07:32.730Z,8.90
2022-11-19T05:10:00.412Z,5.47
2022-11-19T05:12:29.404Z,8.75
2022-11-19T05:14:57.174Z,6.22
2022-11-19T05:17:24.863Z,6.88
2022-11-19T05:19:52.492Z,5.83
2022-11-19T05:22:20.103Z,7.05
2022-11-19T05:24:47.816Z,5.53
2022-11-19T05:27:15.895Z,7.07
2022-11-19T05:29:44.953Z,8.03
2022-11-19T05:32:12.686Z,6.97
2022-11-19T05:34:40.339Z,8.25
2022-11-19T05:37:08.001Z,8.13
2022-11-19T05:39:35.852Z,7.43
2022-11-19T05:42:03.541Z,7.30
2022-11-19T05:44:31.210Z,7.20
2022-11-19T05:47:00.145Z,8.82
2022-11-19T05:49:27.852Z,6.95
2022-11-19T05:51:55.462Z,8.27
2022-11-19T05:54:23.197Z,7.10
2022-11-19T05:56:52.073Z,5.88
2022-11-19T05:59:20.597Z,8.25
2022-11-19T06:01:48.677Z,6.32
2022-11-19T06:04:17.719Z,8.95
2022-11-19T06:06:45.514Z,12.27
2022-11-19T06:09:13.160Z,14.38
2022-11-19T06:11:50.484Z,12.85
2022-11-19T06:14:22.187Z,12.38
2022-11-19T06:16:50.098Z,15.55
2022-11-19T06:19:19.667Z,15.93
2022-11-19T06:21:48.071Z,16.00
2022-11-19T06:24:16.151Z,14.35
2022-11-19T06:26:44.246Z,14.40
2022-11-19T06:29:14.344Z,14.63
2022-11-19T06:31:42.121Z,14.15
2022-11-19T06:34:10.260Z,12.75
2022-11-19T06:36:42.953Z,13.95
2022-11-19T06:39:12.646Z,15.45
2022-11-19T06:41:40.250Z,13.23
2022-11-19T06:44:07.941Z,12.37
2022-11-19T06:46:35.715Z,11.55
2022-11-19T06:49:05.599Z,10.85
2022-11-19T06:51:33.301Z,11.77
2022-11-19T06:54:02.235Z,11.73
2022-11-19T06:56:29.912Z,10.60
2022-11-19T06:58:59.072Z,12.80
2022-11-19T07:01:27.001Z,11.75
2022-11-19T07:03:54.715Z,12.50
2022-11-19T07:06:22.378Z,13.38
2022-11-19T07:08:50.028Z,14.25
2022-11-19T07:11:27.840Z,11.87
2022-11-19T07:13:59.485Z,11.35
2022-11-19T07:16:30.434Z,9.02
2022-11-19T07:18:59.812Z,10.80
2022-11-19T07:21:28.056Z,10.63
2022-11-19T07:23:55.850Z,11.35
2022-11-19T07:26:25.287Z,14.50
2022-11-19T07:28:53.001Z,13.48
2022-11-19T07:31:21.023Z,15.77
2022-11-19T07:33:48.928Z,13.45
2022-11-19T07:36:18.631Z,11.52
2022-11-19T07:38:47.146Z,11.60
2022-11-19T07:41:40.681Z,11.75
2022-11-19T07:44:09.874Z,12.33
2022-11-19T07:46:37.488Z,11.40
2022-11-19T07:49:05.300Z,14.30
2022-11-19T07:51:33.001Z,11.25
2022-11-19T07:54:00.626Z,12.73
2022-11-19T07:56:28.753Z,12.80
2022-11-19T07:58:56.402Z,11.85
2022-11-19T08:01:25.605Z,9.30
2022-11-19T08:03:56.796Z,6.95
2022-11-19T08:06:28.423Z,7.05
2022-11-19T08:08:56.682Z,7.50
2022-11-19T08:11:25.290Z,6.18
2022-11-19T08:13:53.094Z,6.78
2022-11-19T08:16:34.702Z,4.68
2022-11-19T08:19:07.104Z,4.43
2022-11-19T08:21:34.783Z,11.63
2022-11-19T08:24:02.520Z,10.33
2022-11-19T08:26:31.487Z,7.72
2022-11-19T08:28:59.240Z,11.18
2022-11-19T08:31:28.099Z,8.95
2022-11-19T08:33:55.785Z,7.60
2022-11-19T08:36:24.882Z,8.90
2022-11-19T08:38:52.510Z,5.75
2022-11-19T08:41:37.636Z,5.63
2022-11-19T08:44:05.891Z,8.70
2022-11-19T08:46:33.482Z,6.93
2022-11-19T08:49:01.351Z,7.90
2022-11-19T08:51:30.356Z,7.70
2022-11-19T08:53:58.179Z,6.00
2022-11-19T08:56:26.477Z,8.27
2022-11-19T08:58:59.852Z,5.20
2022-11-19T09:01:30.111Z,5.93
2022-11-19T09:04:01.163Z,5.43
2022-11-19T09:06:30.246Z,6.50
2022-11-19T09:08:58.363Z,6.30
2022-11-19T09:11:26.218Z,6.68
2022-11-19T09:13:53.950Z,6.13
2022-11-19T09:16:21.628Z,7.75
2022-11-19T09:18:49.267Z,6.35
2022-11-19T09:21:16.987Z,8.70
2022-11-19T09:23:45.952Z,9.00
2022-11-19T09:26:15.675Z,10.18
2022-11-19T09:28:44.026Z,9.00
2022-11-19T09:31:14.577Z,8.48
2022-11-19T09:33:43.748Z,11.10
2022-11-19T09:36:12.659Z,9.52
2022-11-19T09:38:40.924Z,9.37
2022-11-19T09:41:32.804Z,9.25
2022-11-19T09:44:13.549Z,9.30
2022-11-19T09:46:47.523Z,8.70
2022-11-19T09:49:23.175Z,8.07
2022-11-19T09:51:58.658Z,9.00
2022-11-19T09:54:27.440Z,7.65
2022-11-19T09:57:00.478Z,7.95
2022-11-19T09:59:35.181Z,9.40
2022-11-19T10:02:05.144Z,10.82
2022-11-19T10:04:33.399Z,11.50
2022-11-19T10:07:11.431Z,14.82
2022-11-19T10:10:00.356Z,12.43
2022-11-19T10:12:54.216Z,11.18
2022-11-19T10:15:33.127Z,10.23
2022-11-19T10:18:13.360Z,9.88
2022-11-19T10:21:04.022Z,10.87
2022-11-19T10:23:43.494Z,12.48
2022-11-19T10:26:14.983Z,9.95
2022-11-19T10:28:51.300Z,10.27
2022-11-19T10:31:28.610Z,11.05
2022-11-19T10:34:02.706Z,11.10
2022-11-19T10:36:35.218Z,10.60
2022-11-19T10:39:07.675Z,12.02
2022-11-19T10:41:42.459Z,10.60
2022-11-19T10:44:35.195Z,11.35
2022-11-19T10:47:03.484Z,10.80
2022-11-19T10:49:31.383Z,9.98
2022-11-19T10:51:59.420Z,9.30
2022-11-19T10:54:29.707Z,8.10
2022-11-19T10:56:59.743Z,8.77
2022-11-19T10:59:31.571Z,7.68
2022-11-19T11:02:03.424Z,8.07
2022-11-19T11:04:31.572Z,7.70
2022-11-19T11:07:02.445Z,7.47
2022-11-19T11:09:35.962Z,7.13
2022-11-19T11:12:30.408Z,6.65
2022-11-19T11:15:02.901Z,6.50
2022-11-19T11:17:35.081Z,6.25
2022-11-19T11:20:06.886Z,6.10
2022-11-19T11:22:36.783Z,6.78
2022-11-19T11:25:07.493Z,7.68
2022-11-19T11:27:36.765Z,9.50
2022-11-19T11:30:18.907Z,13.40
2022-11-19T11:32:47.311Z,7.07
2022-11-19T11:35:32.604Z,6.60
2022-11-19T11:38:01.328Z,8.35
2022-11-19T11:40:30.052Z,6.53
2022-11-19T11:42:58.513Z,6.90
2022-11-19T11:45:32.415Z,6.80
2022-11-19T11:48:05.839Z,5.07
2022-11-19T11:50:33.566Z,5.30
2022-11-19T11:53:09.820Z,5.65
2022-11-19T11:55:38.587Z,4.97
2022-11-19T11:58:24.330Z,5.25
2022-11-19T12:00:55.244Z,8.73
2022-11-19T12:03:23.180Z,6.25
2022-11-19T12:06:02.017Z,8.73
2022-11-19T12:08:49.902Z,9.80
2022-11-19T12:11:23.976Z,7.25
2022-11-19T12:13:57.726Z,6.53
2022-11-19T12:16:40.388Z,6.20
2022-11-19T12:19:25.424Z,7.97
2022-11-19T12:22:01.653Z,4.47
2022-11-19T12:24:42.224Z,5.07
2022-11-19T12:27:20.817Z,5.60
2022-11-19T12:30:00.188Z,3.92
2022-11-19T12:33:08.073Z,5.03
2022-11-19T12:35:44.365Z,3.35
2022-11-19T12:38:36.576Z,3.17
2022-11-19T12:41:19.419Z,4.57
2022-11-19T12:43:54.652Z,5.50
2022-11-19T12:46:32.312Z,3.90
2022-11-19T12:49:35.460Z,4.20
2022-11-19T12:52:16.220Z,4.10
2022-11-19T12:54:53.728Z,3.93
2022-11-19T12:57:39.607Z,5.85
2022-11-19T13:00:13.967Z,7.13
2022-11-19T13:02:49.384Z,5.43
2022-11-19T13:05:22.252Z,5.60
2022-11-19T13:07:55.384Z,5.97
2022-11-19T13:10:26.325Z,6.05
2022-11-19T13:12:56.828Z,7.82
2022-11-19T13:15:29.190Z,6.15
2022-11-19T13:18:00.872Z,6.95
2022-11-19T13:20:40.810Z,8.55
2022-11-19T13:23:13.947Z,10.80
2022-11-19T13:25:45.362Z,7.55
2022-11-19T13:28:23.470Z,8.45
2022-11-19T13:30:53.738Z,7.60
2022-11-19T13:33:26.470Z,7.70
2022-11-19T13:36:06.464Z,7.65
2022-11-19T13:38:45.094Z,6.17
2022-11-19T13:41:17.280Z,7.10
2022-11-19T13:44:14.326Z,6.90
2022-11-19T13:46:45.197Z,7.05
2022-11-19T13:49:19.663Z,12.77
2022-11-19T13:51:50.884Z,14.02
2022-11-19T13:54:26.084Z,11.13
2022-11-19T13:56:56.988Z,11.10
2022-11-19T13:59:32.315Z,10.60
2022-11-19T14:02:32.390Z,9.10
2022-11-19T14:05:28.700Z,5.63
2022-11-19T14:08:19.511Z,5.65
2022-11-19T14:11:04.035Z,6.03
2022-11-19T14:13:46.397Z,5.38
2022-11-19T14:16:43.765Z,5.97
2022-11-19T14:19:32.806Z,5.65
2022-11-19T14:22:18.570Z,5.95
2022-11-19T14:25:17.289Z,6.10
2022-11-19T14:27:46.507Z,5.47
2022-11-19T14:30:19.874Z,7.32
2022-11-19T14:32:51.188Z,7.85
2022-11-19T14:35:34.700Z,8.95
2022-11-19T14:38:36.586Z,8.50
2022-11-19T14:41:23.200Z,9.00
2022-11-19T14:44:11.522Z,9.38
2022-11-19T14:46:46.479Z,9.27
2022-11-19T14:49:32.877Z,10.48
2022-11-19T14:52:01.448Z,12.20
2022-11-19T14:54:38.116Z,13.07
2022-11-19T14:57:17.187Z,13.85
2022-11-19T14:59:52.092Z,14.48
2022-11-19T15:02:29.837Z,14.55
2022-11-19T15:05:08.514Z,14.43
2022-11-19T15:07:40.343Z,15.18
2022-11-19T15:10:33.761Z,13.23
2022-11-19T15:13:28.238Z,12.98
2022-11-19T15:15:58.872Z,15.27
2022-11-19T15:19:11.057Z,14.05
2022-11-19T15:21:59.658Z,15.48
2022-11-19T15:24:45.888Z,14.73
2022-11-19T15:27:20.991Z,14.27
2022-11-19T15:30:06.667Z,14.02
2022-11-19T15:32:55.241Z,13.98
2022-11-19T15:35:39.331Z,13.68
2022-11-19T15:38:20.237Z,13.88
2022-11-19T15:40:50.862Z,14.10
2022-11-19T15:43:26.505Z,13.23
2022-11-19T15:46:01.236Z,14.90
2022-11-19T15:48:36.379Z,15.63
2022-11-19T15:51:05.270Z,15.77
2022-11-19T15:53:33.552Z,22.13
2022-11-19T15:56:04.656Z,21.42
2022-11-19T15:58:37.728Z,17.10
2022-11-19T16:01:09.780Z,18.43
2022-11-19T16:03:39.564Z,15.02
2022-11-19T16:06:11.615Z,15.43
2022-11-19T16:08:39.514Z,15.43
2022-11-19T16:11:25.122Z,18.50
2022-11-19T16:14:11.279Z,20.37
2022-11-19T16:16:58.523Z,19.17
2022-11-19T16:19:26.466Z,17.55
2022-11-19T16:21:58.451Z,17.17
2022-11-19T16:24:46.349Z,18.20
2022-11-19T16:27:21.429Z,18.00
2022-11-19T16:29:49.161Z,19.67
2022-11-19T16:32:20.838Z,21.23
2022-11-19T16:34:48.870Z,25.08
2022-11-19T16:37:18.320Z,21.35
2022-11-19T16:39:53.477Z,342.73
2022-11-19T16:42:26.774Z,293.35
2022-11-19T16:44:56.279Z,46.17
2022-11-19T16:47:30.077Z,178.50
2022-11-19T16:50:01.776Z,217.60
2022-11-19T16:52:40.130Z,420.40
2022-11-19T16:55:42.742Z,635.67
2022-11-19T16:58:17.718Z,369.48
2022-11-19T17:00:51.234Z,472.83
2022-11-19T17:03:39.477Z,269.77
2022-11-19T17:06:09.681Z,152.40
2022-11-19T17:08:38.930Z,68.70
2022-11-19T17:11:39.765Z,27.40
2022-11-19T17:14:24.650Z,26.98
2022-11-19T17:16:55.501Z,27.98
2022-11-19T17:19:32.408Z,26.25
2022-11-19T17:22:02.332Z,24.55
2022-11-19T17:24:32.791Z,31.67
2022-11-19T17:27:01.105Z,25.93
2022-11-19T17:29:28.819Z,20.35
2022-11-19T17:31:57.384Z,43.37
2022-11-19T17:34:32.258Z,45.28
2022-11-19T17:37:00.208Z,32.95
2022-11-19T17:39:28.005Z,27.35
2022-11-19T17:42:14.671Z,14.40
2022-11-19T17:44:42.728Z,13.57
2022-11-19T17:47:22.408Z,13.88
2022-11-19T17:49:52.694Z,13.77
2022-11-19T17:52:25.303Z,12.50
2022-11-19T17:54:54.763Z,12.48
2022-11-19T17:57:22.860Z,13.88
2022-11-19T17:59:50.645Z,15.18
2022-11-19T18:02:20.350Z,13.40
2022-11-19T18:04:49.240Z,14.93
2022-11-19T18:07:18.316Z,16.40
2022-11-19T18:09:46.309Z,19.20
2022-11-19T18:12:16.213Z,30.52
2022-11-19T18:14:44.269Z,25.80
2022-11-19T18:17:12.901Z,17.67
2022-11-19T18:19:40.535Z,17.38
2022-11-19T18:22:16.864Z,18.85
2022-11-19T18:24:47.451Z,18.63
2022-11-19T18:27:15.507Z,18.85
2022-11-19T18:29:46.244Z,17.58
2022-11-19T18:32:16.686Z,17.60
2022-11-19T18:34:44.783Z,18.88
2022-11-19T18:37:12.820Z,19.38
2022-11-19T18:39:41.516Z,18.77
2022-11-19T18:42:12.513Z,20.90
2022-11-19T18:44:41.625Z,32.00
2022-11-19T18:47:11.260Z,20.57
2022-11-19T18:49:39.490Z,19.60
2022-11-19T18:52:08.914Z,17.85
2022-11-19T18:54:37.000Z,19.23
2022-11-19T18:57:05.141Z,19.50
2022-11-19T18:59:34.268Z,21.02
2022-11-19T19:02:02.217Z,21.65
2022-11-19T19:04:30.161Z,21.40
2022-11-19T19:06:59.271Z,23.77
2022-11-19T19:09:27.215Z,24.02
2022-11-19T19:12:13.737Z,25.92
2022-11-19T19:14:44.282Z,25.60
2022-11-19T19:17:12.440Z,26.63
2022-11-19T19:19:40.322Z,24.83
2022-11-19T19:22:08.763Z,27.33
2022-11-19T19:24:36.803Z,29.08
2022-11-19T19:27:05.382Z,27.37
2022-11-19T19:29:33.115Z,29.83
2022-11-19T19:32:02.393Z,27.80
2022-11-19T19:34:30.900Z,27.00
2022-11-19T19:36:58.656Z,26.50
2022-11-19T19:39:26.396Z,27.55
2022-11-19T19:41:54.129Z,28.67
2022-11-19T19:44:21.831Z,25.02
2022-11-19T19:46:49.754Z,27.13
2022-11-19T19:49:19.534Z,25.90
2022-11-19T19:51:48.140Z,23.40
2022-11-19T19:54:15.933Z,23.88
2022-11-19T19:56:43.857Z,26.58
2022-11-19T19:59:13.760Z,26.02
2022-11-19T20:01:44.685Z,26.30
2022-11-19T20:04:12.824Z,29.73
2022-11-19T20:06:46.221Z,27.75
2022-11-19T20:09:14.206Z,28.70
2022-11-19T20:11:42.037Z,29.47
2022-11-19T20:14:10.834Z,31.17
2022-11-19T20:16:41.387Z,29.83
2022-11-19T20:19:12.848Z,25.75
2022-11-19T20:21:42.036Z,27.87
2022-11-19T20:24:12.879Z,26.20
2022-11-19T20:26:41.968Z,26.70
2022-11-19T20:29:12.676Z,26.70
2022-11-19T20:31:40.809Z,28.23
2022-11-19T20:34:08.505Z,28.70
2022-11-19T20:36:37.098Z,27.15
2022-11-19T20:39:07.326Z,27.90
2022-11-19T20:41:53.103Z,26.20
2022-11-19T20:44:22.351Z,31.55
2022-11-19T20:46:52.427Z,27.77
2022-11-19T20:49:22.564Z,28.15
2022-11-19T20:51:51.526Z,27.55
2022-11-19T20:54:21.816Z,26.63
2022-11-19T20:56:49.846Z,27.15
2022-11-19T20:59:17.792Z,27.90
2022-11-19T21:01:45.957Z,28.60
2022-11-19T21:04:13.783Z,28.30
2022-11-19T21:06:41.639Z,27.20
2022-11-19T21:09:09.599Z,26.15
2022-11-19T21:11:38.716Z,27.27
2022-11-19T21:14:06.516Z,26.90
2022-11-19T21:16:34.250Z,27.58
2022-11-19T21:19:02.212Z,27.00
2022-11-19T21:21:30.082Z,26.98
2022-11-19T21:23:57.796Z,26.73
2022-11-19T21:26:28.072Z,27.77
2022-11-19T21:28:58.481Z,29.38
2022-11-19T21:31:38.036Z,27.52
2022-11-19T21:34:06.789Z,29.35
2022-11-19T21:36:35.023Z,26.92
2022-11-19T21:39:02.901Z,29.58
2022-11-19T21:41:30.739Z,27.70
2022-11-19T21:44:00.129Z,27.42
2022-11-19T21:46:27.949Z,26.17
2022-11-19T21:48:55.774Z,26.30
2022-11-19T21:51:25.179Z,26.67
2022-11-19T21:53:55.104Z,28.05
2022-11-19T21:56:22.995Z,26.27
2022-11-19T21:58:50.926Z,27.20
2022-11-19T22:01:20.443Z,29.87
2022-11-19T22:03:48.790Z,28.23
2022-11-19T22:06:16.662Z,27.98
2022-11-19T22:08:44.429Z,25.83
2022-11-19T22:11:31.849Z,27.30
2022-11-19T22:14:02.033Z,26.35
2022-11-19T22:16:36.732Z,26.85
2022-11-19T22:19:05.572Z,25.33
2022-11-19T22:21:34.086Z,27.25
2022-11-19T22:24:02.227Z,24.67
2022-11-19T22:26:30.579Z,24.85
2022-11-19T22:28:58.622Z,25.30
2022-11-19T22:31:26.927Z,25.23
2022-11-19T22:33:56.298Z,25.65
2022-11-19T22:36:24.500Z,25.13
2022-11-19T22:38:52.927Z,27.70
2022-11-19T22:41:22.236Z,25.20
2022-11-19T22:43:50.298Z,28.02
2022-11-19T22:46:19.246Z,31.97
2022-11-19T22:48:47.953Z,29.27
2022-11-19T22:51:20.085Z,27.83
2022-11-19T22:53:48.581Z,27.60
2022-11-19T22:56:18.124Z,27.85
2022-11-19T22:58:46.316Z,27.58
2022-11-19T23:01:17.805Z,27.33
2022-11-19T23:03:45.825Z,28.15
2022-11-19T23:06:13.546Z,28.23
2022-11-19T23:08:42.769Z,29.45
2022-11-19T23:11:10.619Z,28.75
2022-11-19T23:13:39.448Z,30.27
2022-11-19T23:16:09.912Z,28.57
2022-11-19T23:18:39.553Z,29.17
2022-11-19T23:21:09.792Z,28.02
2022-11-19T23:23:37.984Z,25.85
2022-11-19T23:26:08.966Z,28.70
2022-11-19T23:28:37.850Z,25.40
2022-11-19T23:31:07.668Z,27.08
2022-11-19T23:33:35.388Z,26.10
2022-11-19T23:36:04.643Z,26.75
2022-11-19T23:38:32.739Z,26.98
2022-11-19T23:41:00.925Z,27.92
2022-11-19T23:43:30.488Z,29.55
2022-11-19T23:46:04.950Z,29.77
2022-11-19T23:48:32.846Z,26.35
2022-11-19T23:51:02.215Z,27.40
2022-11-19T23:53:29.908Z,27.60
2022-11-19T23:55:57.906Z,26.08
2022-11-19T23:58:25.696Z,26.30
